sensor_id;sensor_type;location;lat;lon;timestamp;pressure;altitude;pressure_sealevel;temperature;humidity
23170;BME280;11753;43.144;24.714;2023-02-08T00:00:08;101520.78;;;-3.41;77.41
23170;BME280;11753;43.144;24.714;2023-02-08T00:01:11;101528.63;;;-3.52;77.66
23170;BME280;11753;43.144;24.714;2023-02-08T00:02:13;101522.66;;;-3.54;78.00
23170;BME280;11753;43.144;24.714;2023-02-08T00:03:14;101525.19;;;-3.51;78.08
23170;BME280;11753;43.144;24.714;2023-02-08T00:04:15;101524.38;;;-3.54;77.99
23170;BME280;11753;43.144;24.714;2023-02-08T00:05:17;101525.22;;;-3.54;77.99
23170;BME280;11753;43.144;24.714;2023-02-08T00:06:18;101528.63;;;-3.52;77.86
23170;BME280;11753;43.144;24.714;2023-02-08T00:07:19;101528.63;;;-3.49;77.78
23170;BME280;11753;43.144;24.714;2023-02-08T00:08:20;101523.47;;;-3.49;77.72
23170;BME280;11753;43.144;24.714;2023-02-08T00:09:21;101522.59;;;-3.48;77.36
23170;BME280;11753;43.144;24.714;2023-02-08T00:10:22;101532.06;;;-3.50;77.35
23170;BME280;11753;43.144;24.714;2023-02-08T00:11:23;101526.09;;;-3.55;77.42
23170;BME280;11753;43.144;24.714;2023-02-08T00:12:24;101527.84;;;-3.57;77.10
23170;BME280;11753;43.144;24.714;2023-02-08T00:13:25;101525.34;;;-3.63;77.14
23170;BME280;11753;43.144;24.714;2023-02-08T00:14:26;101530.44;;;-3.57;76.95
23170;BME280;11753;43.144;24.714;2023-02-08T00:15:27;101529.88;;;-3.87;77.27
23170;BME280;11753;43.144;24.714;2023-02-08T00:16:29;101521.44;;;-3.99;78.08
23170;BME280;11753;43.144;24.714;2023-02-08T00:17:30;101527.44;;;-4.02;78.44
23170;BME280;11753;43.144;24.714;2023-02-08T00:18:31;101536.06;;;-4.06;78.52
23170;BME280;11753;43.144;24.714;2023-02-08T00:19:32;101537.72;;;-3.97;78.34
23170;BME280;11753;43.144;24.714;2023-02-08T00:20:32;101529.25;;;-4.10;78.31
23170;BME280;11753;43.144;24.714;2023-02-08T00:21:33;101542.09;;;-4.08;78.43
23170;BME280;11753;43.144;24.714;2023-02-08T00:22:34;101536.94;;;-4.08;78.29
23170;BME280;11753;43.144;24.714;2023-02-08T00:23:35;101539.63;;;-4.22;79.01
23170;BME280;11753;43.144;24.714;2023-02-08T00:24:36;101536.13;;;-4.12;78.81
23170;BME280;11753;43.144;24.714;2023-02-08T00:25:37;101540.44;;;-4.16;78.95
23170;BME280;11753;43.144;24.714;2023-02-08T00:26:38;101543.00;;;-4.12;79.18
23170;BME280;11753;43.144;24.714;2023-02-08T00:27:39;101538.72;;;-4.13;79.36
23170;BME280;11753;43.144;24.714;2023-02-08T00:28:41;101544.69;;;-4.11;79.33
23170;BME280;11753;43.144;24.714;2023-02-08T00:29:41;101539.50;;;-4.08;79.38
23170;BME280;11753;43.144;24.714;2023-02-08T00:30:42;101547.19;;;-4.02;79.12
23170;BME280;11753;43.144;24.714;2023-02-08T00:31:43;101539.44;;;-4.01;78.85
23170;BME280;11753;43.144;24.714;2023-02-08T00:32:44;101535.16;;;-4.00;78.42
23170;BME280;11753;43.144;24.714;2023-02-08T00:33:44;101542.97;;;-4.11;78.72
23170;BME280;11753;43.144;24.714;2023-02-08T00:34:45;101540.34;;;-4.05;78.86
23170;BME280;11753;43.144;24.714;2023-02-08T00:35:45;101536.94;;;-4.07;79.16
23170;BME280;11753;43.144;24.714;2023-02-08T00:36:46;101537.78;;;-4.08;79.28
23170;BME280;11753;43.144;24.714;2023-02-08T00:37:46;101546.47;;;-4.18;79.35
23170;BME280;11753;43.144;24.714;2023-02-08T00:38:47;101544.72;;;-4.13;79.43
23170;BME280;11753;43.144;24.714;2023-02-08T00:39:48;101549.81;;;-4.10;79.24
23170;BME280;11753;43.144;24.714;2023-02-08T00:40:49;101549.06;;;-4.23;79.63
23170;BME280;11753;43.144;24.714;2023-02-08T00:41:49;101547.28;;;-4.15;79.60
23170;BME280;11753;43.144;24.714;2023-02-08T00:42:50;101541.22;;;-4.09;79.17
23170;BME280;11753;43.144;24.714;2023-02-08T00:43:52;101546.56;;;-4.27;78.95
23170;BME280;11753;43.144;24.714;2023-02-08T00:44:53;101547.47;;;-4.34;79.38
23170;BME280;11753;43.144;24.714;2023-02-08T00:45:58;101550.91;;;-4.37;79.74
23170;BME280;11753;43.144;24.714;2023-02-08T00:46:59;101556.94;;;-4.41;79.37
23170;BME280;11753;43.144;24.714;2023-02-08T00:47:59;101560.38;;;-4.40;79.81
23170;BME280;11753;43.144;24.714;2023-02-08T00:49:00;101562.91;;;-4.37;79.84
23170;BME280;11753;43.144;24.714;2023-02-08T00:50:00;101562.03;;;-4.33;79.79
23170;BME280;11753;43.144;24.714;2023-02-08T00:51:04;101562.06;;;-4.38;79.71
23170;BME280;11753;43.144;24.714;2023-02-08T00:52:06;101561.22;;;-4.40;79.92
23170;BME280;11753;43.144;24.714;2023-02-08T00:53:07;101561.22;;;-4.38;79.58
23170;BME280;11753;43.144;24.714;2023-02-08T00:54:13;101557.78;;;-4.39;79.68
23170;BME280;11753;43.144;24.714;2023-02-08T00:55:14;101568.97;;;-4.45;79.80
23170;BME280;11753;43.144;24.714;2023-02-08T00:56:15;101570.66;;;-4.39;79.69
23170;BME280;11753;43.144;24.714;2023-02-08T00:57:16;101563.78;;;-4.35;79.59
23170;BME280;11753;43.144;24.714;2023-02-08T00:58:17;101566.28;;;-4.29;79.48
23170;BME280;11753;43.144;24.714;2023-02-08T00:59:18;101567.13;;;-4.30;79.26
23170;BME280;11753;43.144;24.714;2023-02-08T01:00:19;101562.94;;;-4.39;79.44
23170;BME280;11753;43.144;24.714;2023-02-08T01:01:20;101568.06;;;-4.37;79.51
23170;BME280;11753;43.144;24.714;2023-02-08T01:02:21;101575.75;;;-4.33;79.34
23170;BME280;11753;43.144;24.714;2023-02-08T01:03:22;101572.31;;;-4.36;79.48
23170;BME280;11753;43.144;24.714;2023-02-08T01:04:24;101574.06;;;-4.38;79.53
23170;BME280;11753;43.144;24.714;2023-02-08T01:05:25;101581.78;;;-4.35;79.86
23170;BME280;11753;43.144;24.714;2023-02-08T01:06:26;101571.41;;;-4.29;79.70
23170;BME280;11753;43.144;24.714;2023-02-08T01:07:27;101574.00;;;-4.29;79.49
23170;BME280;11753;43.144;24.714;2023-02-08T01:08:28;101579.09;;;-4.23;79.38
23170;BME280;11753;43.144;24.714;2023-02-08T01:09:29;101579.09;;;-4.20;79.19
23170;BME280;11753;43.144;24.714;2023-02-08T01:10:31;101576.50;;;-4.20;79.01
23170;BME280;11753;43.144;24.714;2023-02-08T01:11:32;101576.47;;;-4.17;78.85
23170;BME280;11753;43.144;24.714;2023-02-08T01:12:33;101578.19;;;-4.18;78.66
23170;BME280;11753;43.144;24.714;2023-02-08T01:13:36;101579.13;;;-4.26;78.81
23170;BME280;11753;43.144;24.714;2023-02-08T01:14:38;101572.28;;;-4.30;78.93
23170;BME280;11753;43.144;24.714;2023-02-08T01:15:39;101583.47;;;-4.34;78.74
23170;BME280;11753;43.144;24.714;2023-02-08T01:16:40;101575.81;;;-4.40;78.88
23170;BME280;11753;43.144;24.714;2023-02-08T01:17:40;101577.50;;;-4.39;78.80
23170;BME280;11753;43.144;24.714;2023-02-08T01:18:43;101581.91;;;-4.54;79.31
23170;BME280;11753;43.144;24.714;2023-02-08T01:19:44;101584.50;;;-4.57;79.88
23170;BME280;11753;43.144;24.714;2023-02-08T01:20:45;101572.44;;;-4.49;79.83
23170;BME280;11753;43.144;24.714;2023-02-08T01:21:46;101571.53;;;-4.43;79.49
23170;BME280;11753;43.144;24.714;2023-02-08T01:22:48;101579.22;;;-4.38;79.25
23170;BME280;11753;43.144;24.714;2023-02-08T01:23:49;101570.63;;;-4.37;79.22
23170;BME280;11753;43.144;24.714;2023-02-08T01:24:50;101578.31;;;-4.36;79.01
23170;BME280;11753;43.144;24.714;2023-02-08T01:25:50;101574.91;;;-4.35;79.07
23170;BME280;11753;43.144;24.714;2023-02-08T01:26:51;101568.06;;;-4.37;79.17
23170;BME280;11753;43.144;24.714;2023-02-08T01:27:52;101571.47;;;-4.37;79.25
23170;BME280;11753;43.144;24.714;2023-02-08T01:28:55;101570.63;;;-4.37;79.02
23170;BME280;11753;43.144;24.714;2023-02-08T01:29:57;101569.78;;;-4.35;78.87
23170;BME280;11753;43.144;24.714;2023-02-08T01:30:58;101574.13;;;-4.46;78.88
23170;BME280;11753;43.144;24.714;2023-02-08T01:31:59;101573.31;;;-4.50;78.50
23170;BME280;11753;43.144;24.714;2023-02-08T01:32:59;101576.78;;;-4.57;78.84
23170;BME280;11753;43.144;24.714;2023-02-08T01:34:04;101579.38;;;-4.66;79.68
23170;BME280;11753;43.144;24.714;2023-02-08T01:35:05;101576.78;;;-4.60;79.82
23170;BME280;11753;43.144;24.714;2023-02-08T01:36:06;101579.38;;;-4.66;79.48
23170;BME280;11753;43.144;24.714;2023-02-08T01:37:07;101571.72;;;-4.71;79.71
23170;BME280;11753;43.144;24.714;2023-02-08T01:38:08;101581.13;;;-4.68;79.79
23170;BME280;11753;43.144;24.714;2023-02-08T01:39:10;101580.28;;;-4.68;79.65
23170;BME280;11753;43.144;24.714;2023-02-08T01:40:11;101572.56;;;-4.67;79.98
23170;BME280;11753;43.144;24.714;2023-02-08T01:41:19;101578.50;;;-4.60;79.65
23170;BME280;11753;43.144;24.714;2023-02-08T01:42:20;101576.81;;;-4.64;79.60
23170;BME280;11753;43.144;24.714;2023-02-08T01:46:16;101583.75;;;-4.80;79.51
23170;BME280;11753;43.144;24.714;2023-02-08T01:47:17;101578.69;;;-4.89;79.76
23170;BME280;11753;43.144;24.714;2023-02-08T01:48:24;101582.97;;;-4.85;79.58
23170;BME280;11753;43.144;24.714;2023-02-08T01:49:33;101585.53;;;-4.88;79.46
23170;BME280;11753;43.144;24.714;2023-02-08T01:50:58;101589.00;;;-5.02;79.75
23170;BME280;11753;43.144;24.714;2023-02-08T01:52:05;101601.03;;;-5.08;79.84
23170;BME280;11753;43.144;24.714;2023-02-08T01:53:09;101593.34;;;-5.11;79.74
23170;BME280;11753;43.144;24.714;2023-02-08T01:54:11;101601.91;;;-5.11;79.88
23170;BME280;11753;43.144;24.714;2023-02-08T01:55:20;101606.22;;;-5.20;80.23
23170;BME280;11753;43.144;24.714;2023-02-08T01:56:27;101596.81;;;-5.20;80.17
23170;BME280;11753;43.144;24.714;2023-02-08T01:57:29;101601.94;;;-5.20;80.27
23170;BME280;11753;43.144;24.714;2023-02-08T01:58:32;101607.06;;;-5.17;80.19
23170;BME280;11753;43.144;24.714;2023-02-08T01:59:52;101603.66;;;-5.25;80.32
23170;BME280;11753;43.144;24.714;2023-02-08T02:00:54;101608.78;;;-5.22;80.21
23170;BME280;11753;43.144;24.714;2023-02-08T02:01:56;101611.38;;;-5.20;80.41
23170;BME280;11753;43.144;24.714;2023-02-08T02:02:58;101617.34;;;-5.17;80.40
23170;BME280;11753;43.144;24.714;2023-02-08T02:04:02;101621.63;;;-5.19;80.48
23170;BME280;11753;43.144;24.714;2023-02-08T02:05:05;101625.03;;;-5.14;80.72
23170;BME280;11753;43.144;24.714;2023-02-08T02:06:10;101620.81;;;-5.29;80.69
23170;BME280;11753;43.144;24.714;2023-02-08T02:07:12;101624.31;;;-5.56;81.59
23170;BME280;11753;43.144;24.714;2023-02-08T02:08:14;101629.44;;;-5.56;82.05
23170;BME280;11753;43.144;24.714;2023-02-08T02:10:32;101634.56;;;-5.56;82.28
23170;BME280;11753;43.144;24.714;2023-02-08T02:11:33;101631.13;;;-5.55;82.28
23170;BME280;11753;43.144;24.714;2023-02-08T02:12:35;101636.25;;;-5.53;82.32
23170;BME280;11753;43.144;24.714;2023-02-08T02:13:37;101634.53;;;-5.46;82.43
23170;BME280;11753;43.144;24.714;2023-02-08T02:14:39;101633.69;;;-5.42;81.84
23170;BME280;11753;43.144;24.714;2023-02-08T02:15:42;101642.22;;;-5.31;81.47
23170;BME280;11753;43.144;24.714;2023-02-08T02:16:43;101640.53;;;-5.40;81.13
23170;BME280;11753;43.144;24.714;2023-02-08T02:17:44;101630.25;;;-5.50;81.80
23170;BME280;11753;43.144;24.714;2023-02-08T02:18:45;101638.84;;;-5.55;82.11
23170;BME280;11753;43.144;24.714;2023-02-08T02:21:32;101643.13;;;-5.60;82.84
23170;BME280;11753;43.144;24.714;2023-02-08T02:23:04;101643.97;;;-5.58;82.78
23170;BME280;11753;43.144;24.714;2023-02-08T02:28:56;101638.00;;;-5.67;84.08
23170;BME280;11753;43.144;24.714;2023-02-08T02:34:33;101636.25;;;-5.58;83.76
23170;BME280;11753;43.144;24.714;2023-02-08T02:37:08;101649.09;;;-5.65;83.52
23170;BME280;11753;43.144;24.714;2023-02-08T02:38:47;101645.69;;;-5.54;83.35
23170;BME280;11753;43.144;24.714;2023-02-08T02:39:54;101655.06;;;-5.43;82.83
23170;BME280;11753;43.144;24.714;2023-02-08T02:41:49;101649.97;;;-5.56;83.03
23170;BME280;11753;43.144;24.714;2023-02-08T02:43:37;101645.66;;;-5.47;83.13
23170;BME280;11753;43.144;24.714;2023-02-08T02:45:59;101652.50;;;-5.34;84.09
23170;BME280;11753;43.144;24.714;2023-02-08T02:47:35;101655.03;;;-5.31;83.74
23170;BME280;11753;43.144;24.714;2023-02-08T02:49:55;101656.75;;;-5.36;82.83
23170;BME280;11753;43.144;24.714;2023-02-08T02:51:21;101652.47;;;-5.31;83.08
23170;BME280;11753;43.144;24.714;2023-02-08T02:52:41;101653.31;;;-5.23;83.26
23170;BME280;11753;43.144;24.714;2023-02-08T02:53:52;101645.63;;;-5.21;82.98
23170;BME280;11753;43.144;24.714;2023-02-08T02:54:58;101644.72;;;-5.13;83.19
23170;BME280;11753;43.144;24.714;2023-02-08T02:56:23;101642.97;;;-5.08;83.15
23170;BME280;11753;43.144;24.714;2023-02-08T02:57:28;101646.41;;;-5.00;83.17
23170;BME280;11753;43.144;24.714;2023-02-08T02:58:32;101648.91;;;-4.89;83.18
23170;BME280;11753;43.144;24.714;2023-02-08T02:59:35;101648.06;;;-4.89;83.15
23170;BME280;11753;43.144;24.714;2023-02-08T03:00:37;101647.19;;;-4.85;83.01
23170;BME280;11753;43.144;24.714;2023-02-08T03:01:38;101647.16;;;-4.81;83.01
23170;BME280;11753;43.144;24.714;2023-02-08T03:02:39;101635.97;;;-4.72;82.54
23170;BME280;11753;43.144;24.714;2023-02-08T03:03:40;101642.78;;;-4.65;82.04
23170;BME280;11753;43.144;24.714;2023-02-08T03:05:42;101647.06;;;-4.59;81.48
23170;BME280;11753;43.144;24.714;2023-02-08T03:12:14;101661.59;;;-4.54;80.91
23170;BME280;11753;43.144;24.714;2023-02-08T03:14:46;101670.16;;;-4.58;80.93
23170;BME280;11753;43.144;24.714;2023-02-08T03:18:03;101660.72;;;-4.51;80.93
23170;BME280;11753;43.144;24.714;2023-02-08T03:20:19;101664.16;;;-4.49;80.20
23170;BME280;11753;43.144;24.714;2023-02-08T03:22:49;101659.88;;;-4.52;80.73
23170;BME280;11753;43.144;24.714;2023-02-08T03:24:40;101658.94;;;-4.40;80.69
23170;BME280;11753;43.144;24.714;2023-02-08T03:27:27;101654.63;;;-4.33;80.15
23170;BME280;11753;43.144;24.714;2023-02-08T03:31:54;101649.56;;;-4.50;79.49
23170;BME280;11753;43.144;24.714;2023-02-08T03:33:09;101651.25;;;-4.45;79.11
23170;BME280;11753;43.144;24.714;2023-02-08T03:34:15;101650.50;;;-4.66;79.78
23170;BME280;11753;43.144;24.714;2023-02-08T03:37:24;101658.25;;;-4.68;80.25
23170;BME280;11753;43.144;24.714;2023-02-08T03:38:33;101654.81;;;-4.67;80.59
23170;BME280;11753;43.144;24.714;2023-02-08T03:39:37;101656.50;;;-4.64;80.50
23170;BME280;11753;43.144;24.714;2023-02-08T03:40:45;101665.03;;;-4.58;80.49
23170;BME280;11753;43.144;24.714;2023-02-08T03:41:50;101665.03;;;-4.58;80.35
23170;BME280;11753;43.144;24.714;2023-02-08T03:42:56;101668.50;;;-4.63;80.49
23170;BME280;11753;43.144;24.714;2023-02-08T03:44:02;101670.22;;;-4.72;80.39
23170;BME280;11753;43.144;24.714;2023-02-08T03:45:12;101672.81;;;-4.70;80.77
23170;BME280;11753;43.144;24.714;2023-02-08T03:46:24;101677.06;;;-4.66;80.74
23170;BME280;11753;43.144;24.714;2023-02-08T03:47:38;101677.91;;;-4.65;80.47
23170;BME280;11753;43.144;24.714;2023-02-08T03:48:50;101680.50;;;-4.61;80.36
23170;BME280;11753;43.144;24.714;2023-02-08T03:49:57;101682.22;;;-4.66;80.37
23170;BME280;11753;43.144;24.714;2023-02-08T03:51:00;101674.50;;;-4.61;80.54
23170;BME280;11753;43.144;24.714;2023-02-08T03:52:05;101680.50;;;-4.61;80.52
23170;BME280;11753;43.144;24.714;2023-02-08T03:53:09;101682.19;;;-4.55;80.37
23170;BME280;11753;43.144;24.714;2023-02-08T03:54:14;101679.59;;;-4.55;80.42
23170;BME280;11753;43.144;24.714;2023-02-08T03:55:22;101673.59;;;-4.53;80.31
23170;BME280;11753;43.144;24.714;2023-02-08T03:59:31;101665.91;;;-4.56;80.52
23170;BME280;11753;43.144;24.714;2023-02-08T04:00:22;101655.59;;;-4.54;80.72
23170;BME280;11753;43.144;24.714;2023-02-08T04:01:37;101671.91;;;-4.57;80.60
23170;BME280;11753;43.144;24.714;2023-02-08T04:03:06;101659.00;;;-4.48;80.82
23170;BME280;11753;43.144;24.714;2023-02-08T04:04:09;101665.00;;;-4.47;80.63
23170;BME280;11753;43.144;24.714;2023-02-08T04:05:11;101663.28;;;-4.47;80.69
23170;BME280;11753;43.144;24.714;2023-02-08T04:06:12;101663.31;;;-4.59;80.69
23170;BME280;11753;43.144;24.714;2023-02-08T04:07:15;101659.88;;;-4.58;80.99
23170;BME280;11753;43.144;24.714;2023-02-08T04:08:17;101664.13;;;-4.48;81.04
23170;BME280;11753;43.144;24.714;2023-02-08T04:09:18;101666.69;;;-4.41;80.90
23170;BME280;11753;43.144;24.714;2023-02-08T04:10:19;101663.25;;;-4.44;81.08
23170;BME280;11753;43.144;24.714;2023-02-08T04:11:20;101665.81;;;-4.42;81.13
23170;BME280;11753;43.144;24.714;2023-02-08T04:12:21;101675.19;;;-4.36;80.92
23170;BME280;11753;43.144;24.714;2023-02-08T04:13:22;101662.31;;;-4.30;80.66
23170;BME280;11753;43.144;24.714;2023-02-08T04:14:23;101668.25;;;-4.22;80.46
23170;BME280;11753;43.144;24.714;2023-02-08T04:15:24;101670.81;;;-4.19;80.37
23170;BME280;11753;43.144;24.714;2023-02-08T04:16:27;101671.72;;;-4.25;80.20
23170;BME280;11753;43.144;24.714;2023-02-08T04:17:28;101673.44;;;-4.25;80.32
23170;BME280;11753;43.144;24.714;2023-02-08T04:18:29;101670.84;;;-4.21;80.33
23170;BME280;11753;43.144;24.714;2023-02-08T04:19:30;101663.94;;;-4.19;80.39
23170;BME280;11753;43.144;24.714;2023-02-08T04:20:31;101673.38;;;-4.18;80.42
23170;BME280;11753;43.144;24.714;2023-02-08T04:21:32;101679.34;;;-4.11;80.12
23170;BME280;11753;43.144;24.714;2023-02-08T04:22:33;101681.94;;;-4.17;80.22
23170;BME280;11753;43.144;24.714;2023-02-08T04:23:36;101681.03;;;-4.10;80.38
23170;BME280;11753;43.144;24.714;2023-02-08T04:24:37;101690.50;;;-4.12;80.05
23170;BME280;11753;43.144;24.714;2023-02-08T04:25:39;101687.88;;;-4.07;80.08
23170;BME280;11753;43.144;24.714;2023-02-08T04:26:40;101688.75;;;-4.07;80.13
23170;BME280;11753;43.144;24.714;2023-02-08T04:27:41;101692.13;;;-3.99;80.09
23170;BME280;11753;43.144;24.714;2023-02-08T04:28:42;101700.69;;;-3.97;80.02
23170;BME280;11753;43.144;24.714;2023-02-08T04:29:42;101700.59;;;-3.88;79.90
23170;BME280;11753;43.144;24.714;2023-02-08T04:30:43;101703.25;;;-3.95;79.18
23170;BME280;11753;43.144;24.714;2023-02-08T04:31:44;101703.38;;;-4.17;79.69
23170;BME280;11753;43.144;24.714;2023-02-08T04:32:45;101705.91;;;-4.06;79.92
23170;BME280;11753;43.144;24.714;2023-02-08T04:33:46;101709.28;;;-4.01;79.36
23170;BME280;11753;43.144;24.714;2023-02-08T04:34:47;101716.16;;;-4.00;79.68
23170;BME280;11753;43.144;24.714;2023-02-08T04:35:48;101722.97;;;-3.96;79.68
23170;BME280;11753;43.144;24.714;2023-02-08T04:36:49;101708.41;;;-3.97;79.56
23170;BME280;11753;43.144;24.714;2023-02-08T04:37:49;101713.53;;;-3.95;79.68
23170;BME280;11753;43.144;24.714;2023-02-08T04:38:50;101708.41;;;-3.97;79.57
23170;BME280;11753;43.144;24.714;2023-02-08T04:39:51;101722.06;;;-3.90;79.32
23170;BME280;11753;43.144;24.714;2023-02-08T04:40:51;101724.69;;;-3.95;79.65
23170;BME280;11753;43.144;24.714;2023-02-08T04:41:52;101729.81;;;-3.92;79.48
23170;BME280;11753;43.144;24.714;2023-02-08T04:42:52;101729.81;;;-3.95;79.69
23170;BME280;11753;43.144;24.714;2023-02-08T04:43:53;101729.78;;;-3.89;79.63
23170;BME280;11753;43.144;24.714;2023-02-08T04:44:53;101733.25;;;-3.93;79.82
23170;BME280;11753;43.144;24.714;2023-02-08T04:45:54;101731.56;;;-3.97;79.89
23170;BME280;11753;43.144;24.714;2023-02-08T04:46:54;101735.88;;;-3.99;80.00
23170;BME280;11753;43.144;24.714;2023-02-08T04:47:55;101735.81;;;-3.94;80.21
23170;BME280;11753;43.144;24.714;2023-02-08T04:48:55;101748.63;;;-3.83;79.96
23170;BME280;11753;43.144;24.714;2023-02-08T04:49:56;101740.91;;;-3.82;79.92
23170;BME280;11753;43.144;24.714;2023-02-08T04:50:57;101747.72;;;-3.76;79.83
23170;BME280;11753;43.144;24.714;2023-02-08T04:51:58;101753.75;;;-3.80;79.85
23170;BME280;11753;43.144;24.714;2023-02-08T04:52:59;101750.31;;;-3.76;79.61
23170;BME280;11753;43.144;24.714;2023-02-08T04:54:00;101749.41;;;-3.74;79.75
23170;BME280;11753;43.144;24.714;2023-02-08T04:55:01;101752.84;;;-3.73;79.68
23170;BME280;11753;43.144;24.714;2023-02-08T04:56:02;101758.78;;;-3.65;79.72
23170;BME280;11753;43.144;24.714;2023-02-08T04:57:03;101755.38;;;-3.64;79.17
23170;BME280;11753;43.144;24.714;2023-02-08T04:58:04;101756.22;;;-3.64;79.07
23170;BME280;11753;43.144;24.714;2023-02-08T04:59:05;101756.22;;;-3.65;79.07
23170;BME280;11753;43.144;24.714;2023-02-08T05:00:06;101759.63;;;-3.65;79.53
23170;BME280;11753;43.144;24.714;2023-02-08T05:01:08;101757.94;;;-3.64;79.71
23170;BME280;11753;43.144;24.714;2023-02-08T05:02:12;101765.63;;;-3.60;79.83
23170;BME280;11753;43.144;24.714;2023-02-08T05:03:13;101763.84;;;-3.50;79.69
23170;BME280;11753;43.144;24.714;2023-02-08T05:04:14;101763.84;;;-3.53;79.67
23170;BME280;11753;43.144;24.714;2023-02-08T05:05:15;101769.00;;;-3.50;79.70
23170;BME280;11753;43.144;24.714;2023-02-08T05:06:16;101773.22;;;-3.46;79.66
23170;BME280;11753;43.144;24.714;2023-02-08T05:07:18;101774.94;;;-3.45;79.53
23170;BME280;11753;43.144;24.714;2023-02-08T05:08:19;101775.81;;;-3.46;79.41
23170;BME280;11753;43.144;24.714;2023-02-08T05:09:20;101785.19;;;-3.39;79.15
23170;BME280;11753;43.144;24.714;2023-02-08T05:10:21;101780.88;;;-3.37;79.13
23170;BME280;11753;43.144;24.714;2023-02-08T05:11:23;101788.59;;;-3.34;78.98
23170;BME280;11753;43.144;24.714;2023-02-08T05:12:25;101788.63;;;-3.35;78.94
23170;BME280;11753;43.144;24.714;2023-02-08T05:13:26;101784.31;;;-3.38;78.88
23170;BME280;11753;43.144;24.714;2023-02-08T05:14:27;101793.75;;;-3.37;79.11
23170;BME280;11753;43.144;24.714;2023-02-08T05:15:28;101788.59;;;-3.32;78.92
23170;BME280;11753;43.144;24.714;2023-02-08T05:16:29;101792.03;;;-3.36;79.02
23170;BME280;11753;43.144;24.714;2023-02-08T05:17:30;101785.16;;;-3.34;79.16
23170;BME280;11753;43.144;24.714;2023-02-08T05:18:31;101793.69;;;-3.27;79.17
23170;BME280;11753;43.144;24.714;2023-02-08T05:19:31;101792.84;;;-3.29;78.87
23170;BME280;11753;43.144;24.714;2023-02-08T05:20:32;101801.47;;;-3.37;79.20
23170;BME280;11753;43.144;24.714;2023-02-08T05:21:33;101798.84;;;-3.26;79.17
23170;BME280;11753;43.144;24.714;2023-02-08T05:22:35;101809.13;;;-3.21;79.17
23170;BME280;11753;43.144;24.714;2023-02-08T05:23:36;101802.22;;;-3.19;78.99
23170;BME280;11753;43.144;24.714;2023-02-08T05:24:37;101806.56;;;-3.24;78.85
23170;BME280;11753;43.144;24.714;2023-02-08T05:25:38;101809.97;;;-3.22;78.80
23170;BME280;11753;43.144;24.714;2023-02-08T05:26:40;101814.25;;;-3.20;78.80
23170;BME280;11753;43.144;24.714;2023-02-08T05:27:41;101815.94;;;-3.17;78.73
23170;BME280;11753;43.144;24.714;2023-02-08T05:28:43;101823.72;;;-3.20;78.50
23170;BME280;11753;43.144;24.714;2023-02-08T05:29:44;101820.22;;;-3.16;78.65
23170;BME280;11753;43.144;24.714;2023-02-08T05:30:46;101825.38;;;-3.16;78.54
23170;BME280;11753;43.144;24.714;2023-02-08T05:31:47;101828.84;;;-3.19;78.59
23170;BME280;11753;43.144;24.714;2023-02-08T05:32:48;101819.41;;;-3.20;78.50
23170;BME280;11753;43.144;24.714;2023-02-08T05:33:50;101811.69;;;-3.21;78.59
23170;BME280;11753;43.144;24.714;2023-02-08T05:34:51;101828.81;;;-3.17;78.56
23170;BME280;11753;43.144;24.714;2023-02-08T05:35:51;101828.84;;;-3.20;78.68
23170;BME280;11753;43.144;24.714;2023-02-08T05:36:53;101827.94;;;-3.16;78.71
23170;BME280;11753;43.144;24.714;2023-02-08T05:37:54;101828.78;;;-3.13;78.99
23170;BME280;11753;43.144;24.714;2023-02-08T05:38:55;101842.50;;;-3.09;79.22
23170;BME280;11753;43.144;24.714;2023-02-08T05:39:56;101843.34;;;-3.09;79.34
23170;BME280;11753;43.144;24.714;2023-02-08T05:40:57;101842.47;;;-3.06;79.51
23170;BME280;11753;43.144;24.714;2023-02-08T05:41:58;101840.78;;;-3.07;79.81
23170;BME280;11753;43.144;24.714;2023-02-08T05:42:59;101844.19;;;-3.05;79.78
23170;BME280;11753;43.144;24.714;2023-02-08T05:44:00;101849.31;;;-3.03;79.86
23170;BME280;11753;43.144;24.714;2023-02-08T05:45:01;101845.91;;;-3.04;80.03
23170;BME280;11753;43.144;24.714;2023-02-08T05:46:03;101845.88;;;-3.02;80.34
23170;BME280;11753;43.144;24.714;2023-02-08T05:47:04;101851.88;;;-2.99;80.41
23170;BME280;11753;43.144;24.714;2023-02-08T05:48:05;101844.97;;;-2.97;80.38
23170;BME280;11753;43.144;24.714;2023-02-08T05:49:06;101851.78;;;-2.90;80.47
23170;BME280;11753;43.144;24.714;2023-02-08T05:50:08;101855.25;;;-2.92;80.48
23170;BME280;11753;43.144;24.714;2023-02-08T05:51:09;101859.56;;;-2.93;80.76
23170;BME280;11753;43.144;24.714;2023-02-08T05:52:10;101850.97;;;-2.95;81.01
23170;BME280;11753;43.144;24.714;2023-02-08T05:53:11;101856.97;;;-2.91;81.20
23170;BME280;11753;43.144;24.714;2023-02-08T05:54:12;101856.88;;;-2.84;81.35
23170;BME280;11753;43.144;24.714;2023-02-08T05:55:13;101852.59;;;-2.85;81.31
23170;BME280;11753;43.144;24.714;2023-02-08T05:56:13;101849.13;;;-2.81;81.58
23170;BME280;11753;43.144;24.714;2023-02-08T05:57:14;101858.56;;;-2.78;81.29
23170;BME280;11753;43.144;24.714;2023-02-08T05:58:16;101859.41;;;-2.78;81.42
23170;BME280;11753;43.144;24.714;2023-02-08T05:59:17;101865.41;;;-2.77;81.29
23170;BME280;11753;43.144;24.714;2023-02-08T06:00:18;101862.84;;;-2.77;80.96
23170;BME280;11753;43.144;24.714;2023-02-08T06:01:20;101863.72;;;-2.78;81.12
23170;BME280;11753;43.144;24.714;2023-02-08T06:02:21;101871.44;;;-2.80;81.13
23170;BME280;11753;43.144;24.714;2023-02-08T06:03:22;101874.09;;;-2.86;81.19
23170;BME280;11753;43.144;24.714;2023-02-08T06:04:23;101878.44;;;-2.91;81.26
23170;BME280;11753;43.144;24.714;2023-02-08T06:05:24;101875.75;;;-2.79;80.95
23170;BME280;11753;43.144;24.714;2023-02-08T06:06:25;101886.91;;;-2.77;80.95
23170;BME280;11753;43.144;24.714;2023-02-08T06:07:26;101884.28;;;-2.73;80.74
23170;BME280;11753;43.144;24.714;2023-02-08T06:08:26;101881.69;;;-2.70;80.55